Time;durP1;ratioP1;P1;durP2;ratioP2;P2;SDS_P1;SDS_P2;PMS_P1;PMS_P2;Temp;Humidity;BMP_temperature;BMP_pressure;BME280_temperature;BME280_humidity;BME280_pressure;Samples;Min_cycle;Max_cycle;Signal;HPM_P1;HPM_P2
2022/01/22 00:00:51;;;;;;;43.80;18.10;;;;;;;3.36;78.42;101467.19;5064965;28;20041;-84
2022/01/22 00:03:18;;;;;;;46.13;16.48;;;;;;;3.36;78.08;101464.56;5036425;28;20404;-84
2022/01/22 00:05:47;;;;;;;46.83;16.98;;;;;;;3.38;77.99;101470.59;5022088;28;20049;-84
2022/01/22 00:08:15;;;;;;;38.15;15.40;;;;;;;3.38;78.06;101467.97;5039171;28;20411;-84
2022/01/22 00:10:44;;;;;;;42.30;18.05;;;;;;;3.40;78.16;101467.94;5019857;28;20047;-84
2022/01/22 00:15:44;;;;;;;37.35;14.75;;;;;;;3.38;78.18;101449.59;5025816;28;20037;-85
2022/01/22 00:18:11;;;;;;;36.85;15.13;;;;;;;3.41;78.29;101451.25;5033406;28;20052;-85
2022/01/22 00:20:38;;;;;;;29.33;12.02;;;;;;;3.41;78.27;101443.38;5036521;28;20048;-84
2022/01/22 00:23:06;;;;;;;39.22;14.98;;;;;;;3.41;78.13;101446.00;5033592;28;20095;-84
2022/01/22 00:25:33;;;;;;;41.75;14.50;;;;;;;3.42;78.29;101443.34;5070059;28;20064;-85
2022/01/22 00:28:01;;;;;;;38.22;16.13;;;;;;;3.42;78.00;101439.88;5034943;28;20412;-84
2022/01/22 00:30:28;;;;;;;42.80;16.40;;;;;;;3.43;78.38;101449.44;5009581;28;20049;-85
2022/01/22 00:32:55;;;;;;;42.70;13.40;;;;;;;3.44;78.11;101440.69;5042420;28;20124;-84
2022/01/22 00:35:23;;;;;;;44.08;17.15;;;;;;;3.43;78.24;101428.44;5027613;28;20059;-84
2022/01/22 00:37:51;;;;;;;43.15;16.58;;;;;;;3.43;78.17;101438.94;5036635;28;20146;-84
2022/01/22 00:40:19;;;;;;;33.95;14.77;;;;;;;3.42;78.17;101438.09;5023661;28;20418;-85
2022/01/22 00:42:46;;;;;;;35.35;16.02;;;;;;;3.43;78.23;101446.81;5028838;28;20036;-85
2022/01/22 00:45:15;;;;;;;37.75;12.93;;;;;;;3.44;78.40;101451.19;5049590;28;20266;-85
2022/01/22 00:47:42;;;;;;;41.90;14.73;;;;;;;3.43;78.29;101445.06;5039061;28;20503;-84
2022/01/22 00:50:12;;;;;;;42.78;15.63;;;;;;;3.42;78.39;101448.59;5050717;28;20407;-84
2022/01/22 00:52:40;;;;;;;39.47;15.90;;;;;;;3.42;78.15;101453.84;5038203;28;20128;-84
2022/01/22 00:55:07;;;;;;;38.05;14.75;;;;;;;3.43;78.32;101457.31;5036475;28;20048;-84
2022/01/22 00:57:34;;;;;;;38.10;14.10;;;;;;;3.44;78.10;101445.94;5017880;28;20072;-85
2022/01/22 01:00:02;;;;;;;47.20;18.20;;;;;;;3.44;78.23;101449.41;5022509;28;20049;-84
2022/01/22 01:02:30;;;;;;;39.97;12.95;;;;;;;3.44;78.50;101451.19;5006523;28;20123;-84
2022/01/22 01:04:57;;;;;;;44.53;17.15;;;;;;;3.43;78.45;101447.69;5063765;28;20060;-85
2022/01/22 01:07:24;;;;;;;42.63;15.73;;;;;;;3.46;78.30;101449.34;5035339;28;20377;-84
2022/01/22 01:09:51;;;;;;;36.97;14.40;;;;;;;3.45;78.25;101445.00;5027512;28;20511;-84
2022/01/22 01:12:19;;;;;;;49.72;16.80;;;;;;;3.46;78.50;101450.22;5040425;28;20964;-85
2022/01/22 01:15:11;;;;;;;41.30;15.95;;;;;;;3.44;78.46;101433.66;5004669;28;20036;-84
2022/01/22 01:34:11;;;;;;;41.20;14.70;;;;;;;3.43;78.38;101452.06;5027834;28;20735;-85
2022/01/22 01:36:39;;;;;;;36.33;13.40;;;;;;;3.45;78.21;101456.38;5035890;28;20044;-85
2022/01/22 01:39:13;;;;;;;35.88;14.70;;;;;;;3.45;78.32;101447.63;5049556;28;20087;-84
2022/01/22 01:41:51;;;;;;;49.25;15.88;;;;;;;3.47;78.52;101459.81;5029002;28;20095;-84
2022/01/22 01:44:20;;;;;;;37.30;15.40;;;;;;;3.45;78.62;101452.88;5024773;28;20057;-84
2022/01/22 01:47:15;;;;;;;46.30;14.98;;;;;;;3.44;78.33;101456.44;5002777;28;20047;-84
2022/01/22 01:49:42;;;;;;;40.17;14.95;;;;;;;3.45;78.33;101455.50;5007866;28;20064;-84
2022/01/22 01:55:34;;;;;;;31.13;13.10;;;;;;;3.44;78.45;101461.69;4998839;28;20041;-84
2022/01/22 01:58:13;;;;;;;31.60;11.52;;;;;;;3.45;78.80;101458.16;5019497;28;20045;-84
2022/01/22 02:00:42;;;;;;;32.70;13.75;;;;;;;3.47;78.35;101457.19;5007762;28;20065;-85
2022/01/22 02:03:11;;;;;;;39.10;14.80;;;;;;;3.45;78.71;101463.41;5022066;28;20732;-85
2022/01/22 02:05:40;;;;;;;36.33;14.50;;;;;;;3.48;78.44;101468.53;5050507;28;20053;-85
2022/01/22 02:08:12;;;;;;;38.63;14.60;;;;;;;3.47;78.53;101462.44;5036025;28;20052;-85
2022/01/22 02:10:56;;;;;;;32.22;12.48;;;;;;;3.49;78.64;101457.16;5041398;28;20082;-85
2022/01/22 02:13:47;;;;;;;35.72;13.23;;;;;;;3.50;78.50;101463.25;4989149;28;20049;-85
2022/01/22 02:24:58;;;;;;;49.15;18.90;;;;;;;3.48;78.23;101444.91;5038761;28;20095;-85
2022/01/22 02:27:25;;;;;;;49.42;16.95;;;;;;;3.48;78.31;101440.50;5029058;28;20519;-84
2022/01/22 02:29:52;;;;;;;45.05;16.42;;;;;;;3.49;78.51;101436.13;5041551;28;20113;-84
2022/01/22 02:33:03;;;;;;;42.45;17.52;;;;;;;3.48;78.43;101435.25;5042332;28;20059;-84
2022/01/22 02:35:37;;;;;;;43.92;17.63;;;;;;;3.46;78.50;101425.72;5026831;28;20045;-84
2022/01/22 02:38:12;;;;;;;41.95;16.15;;;;;;;3.48;78.21;101424.75;5030100;28;20474;-84
2022/01/22 02:40:45;;;;;;;44.13;17.30;;;;;;;3.49;78.30;101428.25;5029196;28;20055;-84
2022/01/22 02:43:13;;;;;;;47.10;16.55;;;;;;;3.49;78.42;101417.75;5040601;28;20048;-80
2022/01/22 02:45:41;;;;;;;49.88;17.15;;;;;;;3.47;78.28;101412.53;5047566;28;20495;-80
2022/01/22 02:48:10;;;;;;;50.58;18.77;;;;;;;3.50;78.40;101416.81;5032554;28;20051;-80
2022/01/22 02:50:37;;;;;;;46.00;18.30;;;;;;;3.50;78.39;101410.72;5026720;28;20110;-80
2022/01/22 02:53:06;;;;;;;49.80;18.58;;;;;;;3.47;78.41;101411.69;5036798;28;20063;-80
2022/01/22 02:55:34;;;;;;;47.92;17.73;;;;;;;3.48;78.30;101424.75;5030312;28;20570;-80
2022/01/22 02:58:02;;;;;;;48.88;17.58;;;;;;;3.47;78.37;101425.66;5029567;28;20064;-81
2022/01/22 03:00:29;;;;;;;46.78;16.38;;;;;;;3.44;78.51;101422.31;5061465;28;20110;-80
2022/01/22 03:02:57;;;;;;;42.40;16.30;;;;;;;3.44;78.56;101425.78;5036791;28;20045;-81
2022/01/22 03:05:28;;;;;;;44.25;16.40;;;;;;;3.36;79.22;101430.44;5024335;28;20048;-80
2022/01/22 03:07:57;;;;;;;36.88;14.10;;;;;;;3.44;78.80;101419.69;5041308;28;20048;-80
2022/01/22 03:10:26;;;;;;;38.08;15.70;;;;;;;3.46;78.69;101425.72;5026194;28;20041;-81
2022/01/22 03:13:12;;;;;;;33.58;12.63;;;;;;;3.48;79.04;101423.91;5047132;28;20187;-80
2022/01/22 03:18:42;;;;;;;38.70;15.82;;;;;;;3.48;78.83;101413.38;5031429;28;20041;-81
2022/01/22 03:22:00;;;;;;;43.80;17.77;;;;;;;3.47;78.53;101422.19;5023950;28;20538;-81
2022/01/22 03:29:34;;;;;;;41.72;16.25;;;;;;;3.44;78.67;101431.03;5032153;28;20119;-80
2022/01/22 03:32:02;;;;;;;47.35;16.92;;;;;;;3.44;78.56;101423.16;5020710;28;20067;-81
2022/01/22 03:34:35;;;;;;;49.30;16.27;;;;;;;3.48;78.72;101421.25;5045548;28;20059;-81
2022/01/22 03:37:03;;;;;;;42.42;17.88;;;;;;;3.50;78.69;101418.59;5038660;28;20048;-80
2022/01/22 03:39:30;;;;;;;40.88;16.70;;;;;;;3.47;78.61;101417.78;5053385;28;20837;-81
2022/01/22 03:41:57;;;;;;;46.88;16.88;;;;;;;3.48;78.83;101416.88;5015237;28;20072;-81
2022/01/22 03:44:24;;;;;;;44.83;17.55;;;;;;;3.51;78.72;101415.06;5044589;28;20049;-81
2022/01/22 03:46:54;;;;;;;44.80;16.63;;;;;;;3.53;78.74;101415.88;5040977;28;20116;-81
2022/01/22 03:49:21;;;;;;;52.95;17.73;;;;;;;3.52;78.57;101424.66;5012560;28;20476;-81
2022/01/22 03:51:48;;;;;;;38.50;16.20;;;;;;;3.53;78.77;101429.00;5021879;28;20041;-81
2022/01/22 03:54:15;;;;;;;42.95;16.73;;;;;;;3.52;78.59;101432.53;5028706;28;20133;-81
2022/01/22 03:56:46;;;;;;;42.80;19.33;;;;;;;3.53;78.98;101431.63;5024131;28;20052;-81
2022/01/22 03:59:18;;;;;;;45.08;16.10;;;;;;;3.53;78.49;101426.38;5028930;28;20045;-80
2022/01/22 04:04:51;;;;;;;43.28;17.52;;;;;;;3.51;78.71;101429.06;5013409;28;20118;-80
2022/01/22 04:09:50;;;;;;;41.45;14.57;;;;;;;3.53;78.79;101421.13;5070013;28;20584;-81
2022/01/22 04:12:24;;;;;;;43.10;16.60;;;;;;;3.54;78.83;101413.19;5043005;28;20049;-80
2022/01/22 04:15:00;;;;;;;30.60;14.18;;;;;;;3.54;78.93;101407.09;5039384;28;20053;-81
2022/01/22 04:25:34;;;;;;;32.40;13.00;;;;;;;3.51;78.79;101397.56;5043352;28;20514;-81
2022/01/22 04:28:01;;;;;;;37.38;14.68;;;;;;;3.55;78.86;101393.91;5051100;28;20040;-81
2022/01/22 04:30:28;;;;;;;35.65;14.25;;;;;;;3.53;78.69;101392.22;5046375;28;20041;-81
2022/01/22 04:32:56;;;;;;;44.42;16.23;;;;;;;3.53;78.75;101384.34;5024617;28;20076;-81
2022/01/22 04:35:23;;;;;;;33.38;14.27;;;;;;;3.54;78.74;101389.56;5046919;28;20079;-81
2022/01/22 04:37:50;;;;;;;34.30;15.90;;;;;;;3.56;78.94;101394.75;5035223;28;20063;-81
2022/01/22 04:40:17;;;;;;;39.22;15.05;;;;;;;3.54;78.85;101388.72;5039442;28;20049;-80
2022/01/22 04:42:44;;;;;;;40.40;17.73;;;;;;;3.57;78.65;101399.09;5006408;28;20468;-80
2022/01/22 04:45:25;;;;;;;39.92;14.98;;;;;;;3.56;78.80;101400.00;5028831;28;20492;-81
2022/01/22 04:55:41;;;;;;;50.58;17.42;;;;;;;3.57;78.63;101415.72;5014888;28;20606;-81
2022/01/22 04:58:08;;;;;;;45.45;16.75;;;;;;;3.56;78.91;101398.25;5016096;28;20041;-81
2022/01/22 05:00:39;;;;;;;42.65;16.77;;;;;;;3.54;78.44;101394.81;4998734;28;20052;-81
2022/01/22 05:03:09;;;;;;;46.25;17.30;;;;;;;3.56;78.64;101390.38;5006123;28;20107;-81
2022/01/22 05:06:00;;;;;;;50.00;17.75;;;;;;;3.57;78.58;101401.72;4994303;28;20045;-80
2022/01/22 05:08:41;;;;;;;41.80;15.85;;;;;;;3.56;78.64;101395.63;5010892;28;20088;-81
2022/01/22 05:11:11;;;;;;;42.38;16.33;;;;;;;3.58;78.55;101395.56;5025815;28;20041;-81
2022/01/22 05:13:40;;;;;;;46.90;17.30;;;;;;;3.57;78.61;101405.22;5022752;28;20407;-81
2022/01/22 05:16:10;;;;;;;40.58;15.05;;;;;;;3.58;78.90;101398.19;5023792;28;20484;-81
2022/01/22 05:18:45;;;;;;;33.95;13.98;;;;;;;3.58;78.86;101412.16;5041741;28;20045;-81
2022/01/22 05:21:15;;;;;;;26.83;11.95;;;;;;;3.58;78.77;101411.31;4992173;28;20106;-80
2022/01/22 05:23:43;;;;;;;55.20;18.83;;;;;;;3.58;78.86;101414.78;5003472;28;20049;-81
2022/01/22 05:26:29;;;;;;;45.60;16.95;;;;;;;3.58;78.83;101413.94;5000348;28;20108;-81
2022/01/22 05:29:15;;;;;;;39.97;15.35;;;;;;;3.57;79.09;101428.00;5037795;28;20053;-81
2022/01/22 05:36:57;;;;;;;45.13;17.20;;;;;;;3.56;78.81;101431.50;5053256;28;20769;-81
2022/01/22 05:38:03;;;;;;;37.97;15.65;;;;;;;3.56;78.83;101423.63;5015281;28;20101;-80
2022/01/22 05:40:30;;;;;;;46.22;17.33;;;;;;;3.57;78.90;101417.50;5034333;28;20135;-80
2022/01/22 05:42:59;;;;;;;40.97;17.00;;;;;;;3.59;78.78;101434.06;5062755;28;20045;-81
2022/01/22 05:45:26;;;;;;;49.22;16.92;;;;;;;3.60;79.02;101430.50;4999787;28;20583;-84
2022/01/22 05:47:53;;;;;;;46.47;16.50;;;;;;;3.57;79.17;101428.84;5045282;28;20381;-84
2022/01/22 05:50:37;;;;;;;43.88;18.55;;;;;;;3.59;79.08;101427.03;5046115;28;20070;-84
2022/01/22 05:53:15;;;;;;;41.17;14.30;;;;;;;3.59;79.04;101418.31;4993931;28;20049;-84
2022/01/22 06:01:24;;;;;;;55.15;17.48;;;;;;;3.54;79.34;101426.34;5002826;28;19928;-84
2022/01/22 06:04:02;;;;;;;44.92;17.88;;;;;;;3.55;79.05;101433.28;5024942;28;20045;-84
2022/01/22 06:06:29;;;;;;;53.33;19.17;;;;;;;3.54;79.16;101438.63;5024438;28;20045;-84
2022/01/22 06:09:01;;;;;;;46.67;18.55;;;;;;;3.56;79.22;101447.28;5038745;28;20053;-85
2022/01/22 06:11:36;;;;;;;;;;;;;;;3.39;79.48;101453.09;5010530;28;20076;-84
2022/01/22 06:14:05;;;;;;;44.47;16.63;;;;;;;3.49;79.39;101451.91;5036214;28;19924;-84
2022/01/22 06:16:41;;;;;;;43.33;18.25;;;;;;;3.53;79.26;101450.00;5034082;28;20040;-84
2022/01/22 06:19:17;;;;;;;46.33;17.83;;;;;;;3.50;79.29;101450.97;5051720;28;20111;-85
2022/01/22 06:21:45;;;;;;;44.25;16.63;;;;;;;3.53;79.59;101457.88;5036096;28;20048;-85
2022/01/22 06:24:12;;;;;;;42.42;15.60;;;;;;;3.54;79.47;101452.59;5048815;28;20045;-84
2022/01/22 06:26:40;;;;;;;60.70;19.60;;;;;;;3.56;79.27;101453.41;5021480;28;20048;-85
2022/01/22 06:29:09;;;;;;;44.70;17.58;;;;;;;3.57;79.54;101462.16;5020211;28;20056;-84
2022/01/22 06:31:36;;;;;;;46.13;18.10;;;;;;;3.57;79.33;101470.88;5033162;28;20641;-84
2022/01/22 06:34:03;;;;;;;48.05;19.05;;;;;;;3.61;79.24;101464.63;5022409;28;20057;-83
2022/01/22 06:36:32;;;;;;;44.40;16.60;;;;;;;3.58;79.23;101466.47;5010018;28;20047;-84
2022/01/22 06:39:14;;;;;;;46.22;16.08;;;;;;;3.60;79.50;101462.03;5006772;28;20125;-83
2022/01/22 06:42:00;;;;;;;41.55;14.90;;;;;;;3.60;79.38;101462.03;5000424;28;20450;-84
2022/01/22 06:45:04;;;;;;;39.22;14.90;;;;;;;3.59;79.35;101458.56;4944573;28;20208;-83
2022/01/22 06:48:03;;;;;;;50.33;16.85;;;;;;;3.60;79.46;101468.13;4975771;28;20037;-84
2022/01/22 06:50:36;;;;;;;45.83;17.10;;;;;;;3.61;79.49;101477.75;5002133;28;20128;-84
2022/01/22 06:53:04;;;;;;;53.65;20.13;;;;;;;3.63;79.37;101488.19;5029448;28;20052;-84
2022/01/22 06:56:00;;;;;;;27.70;10.55;;;;;;;3.63;79.31;101481.16;5034723;28;20041;-84
2022/01/22 06:58:39;;;;;;;44.17;16.45;;;;;;;3.60;79.45;101481.28;4978401;28;20108;-84
2022/01/22 07:01:09;;;;;;;30.27;13.63;;;;;;;3.64;79.31;101475.03;5021994;28;20057;-84
2022/01/22 07:03:43;;;;;;;57.42;19.65;;;;;;;3.69;79.31;101480.13;5037688;28;20040;-84
2022/01/22 07:06:25;;;;;;;46.58;18.52;;;;;;;3.64;79.48;101477.66;5034843;28;20063;-83
2022/01/22 07:08:52;;;;;;;49.00;16.55;;;;;;;3.66;79.54;101477.56;5021380;28;20051;-84
2022/01/22 07:11:18;;;;;;;46.88;17.10;;;;;;;3.65;79.41;101481.97;5051440;28;20091;-84
2022/01/22 07:13:47;;;;;;;45.22;18.35;;;;;;;3.64;79.24;101482.91;5042977;28;20854;-84
2022/01/22 07:16:15;;;;;;;52.20;19.00;;;;;;;3.65;79.16;101492.50;5021975;28;20044;-84
2022/01/22 07:18:45;;;;;;;49.50;19.13;;;;;;;3.64;79.36;101501.28;5055571;28;20049;-84
2022/01/22 07:21:20;;;;;;;56.10;18.85;;;;;;;3.66;79.00;101506.47;5032920;28;20060;-84
2022/01/22 07:26:24;;;;;;;50.15;20.17;;;;;;;3.61;79.42;101501.41;5020253;28;20056;-80
2022/01/22 07:28:57;;;;;;;47.45;19.65;;;;;;;3.61;78.87;101490.00;5034699;28;20052;-80
2022/01/22 07:31:27;;;;;;;57.58;18.00;;;;;;;3.59;79.19;101505.84;5024088;28;20049;-79
2022/01/22 07:33:58;;;;;;;47.38;19.08;;;;;;;3.63;78.82;101503.97;5059054;28;20067;-80
2022/01/22 07:36:25;;;;;;;54.92;18.98;;;;;;;3.58;79.17;101506.72;5003256;28;20126;-80
2022/01/22 07:38:53;;;;;;;62.13;17.73;;;;;;;3.57;79.64;101498.91;5042286;28;20048;-79
2022/01/22 07:41:20;;;;;;;45.20;17.67;;;;;;;3.60;79.36;101485.69;5067615;28;20132;-80
2022/01/22 07:44:05;;;;;;;43.95;16.10;;;;;;;3.60;79.39;101483.91;5042610;28;20041;-79
2022/01/22 07:46:47;;;;;;;41.70;15.05;;;;;;;3.61;79.43;101484.75;5026521;28;20061;-79
2022/01/22 07:49:20;;;;;;;47.72;17.40;;;;;;;3.61;79.54;101488.25;5033718;28;20201;-79
2022/01/22 07:51:52;;;;;;;44.35;16.55;;;;;;;3.64;79.27;101495.19;5044920;28;20098;-79
2022/01/22 07:54:21;;;;;;;35.92;14.52;;;;;;;3.64;79.42;101498.66;5042247;28;20163;-79
2022/01/22 07:56:50;;;;;;;45.08;17.00;;;;;;;3.65;79.43;101502.16;5021509;28;20070;-78
2022/01/22 07:59:18;;;;;;;53.90;17.85;;;;;;;3.64;79.36;101501.28;5036298;28;20069;-78
2022/01/22 08:01:49;;;;;;;47.30;16.95;;;;;;;3.63;79.25;101510.06;5022545;28;20044;-78
2022/01/22 08:04:23;;;;;;;48.28;18.65;;;;;;;3.64;79.05;101505.69;5052822;28;20055;-79
2022/01/22 08:07:09;;;;;;;53.70;18.67;;;;;;;3.60;79.08;101497.03;5033389;28;20501;-79
2022/01/22 08:10:10;;;;;;;52.30;18.60;;;;;;;3.59;79.39;101497.09;4991530;28;20059;-80
2022/01/22 08:12:48;;;;;;;51.13;18.15;;;;;;;3.61;79.23;101513.66;5027443;28;20057;-80
2022/01/22 08:15:16;;;;;;;45.22;17.55;;;;;;;3.60;79.58;101504.91;5043261;28;20048;-79
2022/01/22 08:17:44;;;;;;;45.50;17.65;;;;;;;3.59;79.56;101504.97;5040681;28;20051;-79
2022/01/22 08:20:14;;;;;;;53.97;18.90;;;;;;;3.61;79.55;101505.75;5036475;28;20411;-79
2022/01/22 08:22:50;;;;;;;41.35;15.43;;;;;;;3.64;79.59;101508.31;5031057;28;20057;-79
2022/01/22 08:25:38;;;;;;;37.58;14.93;;;;;;;3.64;79.66;101510.94;4981035;28;20059;-79
2022/01/22 08:31:49;;;;;;;52.55;17.92;;;;;;;3.65;79.59;101520.53;5024573;28;20116;-79
2022/01/22 08:36:54;;;;;;;49.85;17.35;;;;;;;3.68;79.48;101520.44;5007685;28;20539;-79
2022/01/22 08:39:21;;;;;;;44.10;16.17;;;;;;;3.67;79.41;101521.34;5051794;28;20051;-79
2022/01/22 08:41:54;;;;;;;43.65;14.85;;;;;;;3.68;79.41;101523.06;5021715;28;20116;-79
2022/01/22 08:44:21;;;;;;;46.45;16.52;;;;;;;3.68;79.67;101520.44;5033641;28;20106;-79
2022/01/22 08:46:49;;;;;;;46.88;15.80;;;;;;;3.70;79.41;101529.13;5037167;28;20063;-80
2022/01/22 08:49:17;;;;;;;46.22;16.63;;;;;;;3.69;79.66;101532.66;5064614;28;20049;-79
2022/01/22 08:51:48;;;;;;;43.35;14.55;;;;;;;3.69;79.35;101541.41;5027035;28;20057;-79
2022/01/22 08:54:16;;;;;;;47.40;15.48;;;;;;;3.72;79.70;101535.19;5017079;28;20053;-78
2022/01/22 08:56:43;;;;;;;39.28;15.57;;;;;;;3.70;79.60;101537.84;5040368;28;20523;-79
2022/01/22 08:59:12;;;;;;;42.38;14.93;;;;;;;3.72;79.70;101540.44;5051457;28;20101;-80
2022/01/22 09:01:43;;;;;;;73.07;22.25;;;;;;;3.70;79.69;101540.47;5034109;28;20045;-79
2022/01/22 09:04:21;;;;;;;64.53;20.13;;;;;;;3.73;79.90;101543.94;5026367;28;20686;-79
2022/01/22 09:07:17;;;;;;;45.65;19.23;;;;;;;3.74;80.06;101543.00;5005710;28;20507;-79
2022/01/22 09:09:55;;;;;;;52.38;16.08;;;;;;;3.73;79.89;101541.28;5047013;28;20083;-79
2022/01/22 09:12:54;;;;;;;50.42;17.05;;;;;;;3.75;80.00;101548.22;4982635;28;20052;-79
2022/01/22 09:15:24;;;;;;;43.97;16.08;;;;;;;3.78;80.00;101553.38;5024682;28;20044;-80
2022/01/22 09:17:52;;;;;;;48.50;17.45;;;;;;;3.78;79.99;101556.00;5027615;28;20037;-79
2022/01/22 09:23:07;;;;;;;59.10;19.05;;;;;;;3.77;80.29;101585.81;5023982;28;20447;-78
2022/01/22 09:25:35;;;;;;;42.17;16.70;;;;;;;3.77;80.23;101574.47;5047098;28;20492;-79
2022/01/22 09:28:03;;;;;;;39.78;15.85;;;;;;;3.80;80.15;101577.84;5013421;28;20049;-79
2022/01/22 09:30:31;;;;;;;38.20;14.25;;;;;;;3.80;80.32;101577.84;5019353;28;20136;-79
2022/01/22 09:32:58;;;;;;;43.50;17.73;;;;;;;3.84;80.30;101562.81;5019800;28;20528;-79
2022/01/22 09:35:45;;;;;;;46.50;17.92;;;;;;;3.85;80.38;101561.91;5008898;28;20136;-79
2022/01/22 09:38:31;;;;;;;47.65;18.10;;;;;;;3.83;80.58;101554.06;5019570;28;20484;-79
2022/01/22 09:41:30;;;;;;;51.45;18.70;;;;;;;3.85;80.39;101573.28;4954595;28;20146;-79
2022/01/22 09:44:28;;;;;;;49.13;17.40;;;;;;;3.83;80.55;101582.97;5014233;28;20369;-79
2022/01/22 09:47:24;;;;;;;35.95;13.43;;;;;;;3.83;80.53;101576.88;4942056;28;20043;-79
2022/01/22 09:50:05;;;;;;;54.75;17.20;;;;;;;3.84;80.37;101576.84;5036039;28;20113;-78
2022/01/22 09:52:53;;;;;;;42.78;15.57;;;;;;;3.87;80.37;101587.25;5030564;28;20049;-79
2022/01/22 09:55:38;;;;;;;40.40;14.82;;;;;;;3.87;80.53;101595.13;5040438;28;20679;-79
2022/01/22 09:58:43;;;;;;;46.40;16.83;;;;;;;3.85;80.56;101588.19;4994084;28;20053;-78
2022/01/22 10:01:42;;;;;;;50.97;17.50;;;;;;;3.85;80.56;101594.31;4940313;28;20040;-79
2022/01/22 10:04:34;;;;;;;47.30;18.15;;;;;;;3.83;80.76;101595.28;5026945;28;20132;-79
2022/01/22 10:07:26;;;;;;;50.03;16.25;;;;;;;3.85;80.54;101586.44;5025666;28;20447;-79
2022/01/22 10:10:10;;;;;;;48.75;16.85;;;;;;;3.85;80.95;101596.94;5022010;28;20045;-79
2022/01/22 10:12:46;;;;;;;44.33;16.77;;;;;;;3.88;80.71;101594.19;5050050;28;20079;-79
2022/01/22 10:15:35;;;;;;;37.83;13.30;;;;;;;3.94;81.02;101594.91;5034477;28;20067;-79
2022/01/22 10:18:09;;;;;;;41.58;16.35;;;;;;;3.95;80.99;101594.88;5032991;28;20045;-79
2022/01/22 10:20:40;;;;;;;51.47;17.58;;;;;;;3.92;81.07;101585.31;5023681;28;20036;-79
2022/01/22 10:23:22;;;;;;;53.05;19.70;;;;;;;3.88;81.73;101570.56;5041569;28;20055;-77
2022/01/22 10:25:57;;;;;;;44.90;15.57;;;;;;;3.94;80.85;101573.88;5030611;28;20051;-77
2022/01/22 10:28:26;;;;;;;50.42;16.27;;;;;;;3.96;81.12;101572.94;5012954;28;20045;-78
2022/01/22 10:30:59;;;;;;;48.83;17.77;;;;;;;4.00;81.04;101566.66;5036034;28;20623;-78
2022/01/22 10:34:09;;;;;;;46.83;14.02;;;;;;;3.94;80.82;101561.59;4945756;28;20065;-78
2022/01/22 10:36:58;;;;;;;48.33;16.40;;;;;;;3.97;80.99;101560.63;4930006;28;20482;-78
2022/01/22 10:39:44;;;;;;;46.30;17.42;;;;;;;4.02;80.98;101551.72;5006938;28;20052;-78
2022/01/22 10:42:26;;;;;;;39.47;15.05;;;;;;;3.92;81.46;101552.94;5052040;28;20063;-77
2022/01/22 10:44:59;;;;;;;53.15;16.30;;;;;;;4.02;81.14;101535.06;5027338;28;20591;-78
2022/01/22 10:47:28;;;;;;;37.50;15.15;;;;;;;4.05;80.87;101538.47;5053989;28;20044;-76
2022/01/22 10:50:15;;;;;;;38.47;14.77;;;;;;;3.96;81.53;101549.28;5037391;28;20369;-76
2022/01/22 10:52:48;;;;;;;39.20;15.60;;;;;;;4.04;81.17;101541.13;5054012;28;20079;-76
2022/01/22 10:55:15;;;;;;;40.33;14.43;;;;;;;4.09;81.25;101547.09;5033468;28;20096;-76
2022/01/22 10:58:06;;;;;;;38.67;14.93;;;;;;;4.05;81.06;101553.38;5055118;28;20135;-76
2022/01/22 11:00:36;;;;;;;43.03;16.05;;;;;;;4.14;81.56;101556.53;5054796;28;20049;-76
2022/01/22 11:03:22;;;;;;;44.60;15.38;;;;;;;4.04;81.16;101555.13;5046853;28;20144;-76
2022/01/22 11:05:49;;;;;;;44.60;14.73;;;;;;;4.10;81.59;101554.09;5029947;28;20049;-76
2022/01/22 11:08:17;;;;;;;33.80;14.18;;;;;;;4.13;81.09;101554.81;5056982;28;20555;-77
2022/01/22 11:10:45;;;;;;;43.38;14.70;;;;;;;4.12;81.61;101555.75;5050117;28;20049;-76
2022/01/22 11:13:13;;;;;;;43.63;15.13;;;;;;;4.16;81.18;101558.25;5037167;28;20037;-76
2022/01/22 11:15:40;;;;;;;38.15;15.20;;;;;;;4.14;81.12;101566.19;5052625;28;20041;-76
2022/01/22 11:18:07;;;;;;;44.13;16.67;;;;;;;4.13;80.92;101569.75;5046777;28;20684;-76
2022/01/22 11:20:36;;;;;;;42.20;15.15;;;;;;;4.13;81.18;101565.34;5052315;28;20051;-76
2022/01/22 11:23:03;;;;;;;44.08;15.93;;;;;;;4.10;81.50;101569.84;5046497;28;20037;-76
2022/01/22 11:25:30;;;;;;;44.58;15.05;;;;;;;4.15;81.13;101565.31;5056495;28;20041;-76
2022/01/22 11:27:58;;;;;;;42.25;15.93;;;;;;;4.17;81.14;101570.50;5055538;28;20045;-76
2022/01/22 11:30:25;;;;;;;35.42;14.05;;;;;;;4.19;80.86;101571.31;5052776;28;20045;-76
2022/01/22 11:32:55;;;;;;;37.05;13.48;;;;;;;4.16;81.35;101568.78;5054498;28;20479;-77
2022/01/22 11:35:27;;;;;;;44.72;14.70;;;;;;;4.20;81.04;101558.13;5054155;28;20052;-77
2022/01/22 11:38:10;;;;;;;40.22;14.15;;;;;;;4.15;81.13;101565.31;5044180;28;20411;-76
2022/01/22 11:40:37;;;;;;;34.00;14.77;;;;;;;4.19;80.69;101564.25;5022992;28;20052;-76
2022/01/22 11:43:10;;;;;;;34.47;13.93;;;;;;;4.17;81.01;101565.22;5049431;28;20049;-76
2022/01/22 11:45:49;;;;;;;40.13;15.93;;;;;;;4.24;80.42;101572.00;5038751;28;20646;-76
2022/01/22 11:48:27;;;;;;;46.10;15.60;;;;;;;4.14;81.28;101568.81;5026884;28;20080;-76
2022/01/22 11:50:56;;;;;;;42.03;15.25;;;;;;;4.16;80.67;101563.53;5050025;28;20040;-76
2022/01/22 11:53:32;;;;;;;41.90;15.20;;;;;;;4.18;81.08;101570.44;5050709;28;20052;-76
2022/01/22 11:56:11;;;;;;;43.60;16.02;;;;;;;4.14;80.82;101574.94;5052180;28;20048;-76
2022/01/22 11:58:57;;;;;;;42.90;15.75;;;;;;;4.03;82.00;101571.81;5049840;28;20043;-77
2022/01/22 12:01:46;;;;;;;49.63;17.17;;;;;;;4.13;80.59;101567.97;5042584;28;20049;-76
2022/01/22 12:04:16;;;;;;;40.08;15.90;;;;;;;4.17;80.94;101568.72;5008888;28;20068;-76
2022/01/22 12:07:03;;;;;;;41.58;15.75;;;;;;;4.10;81.24;101564.59;4988955;28;20408;-77
2022/01/22 12:10:05;;;;;;;39.00;16.02;;;;;;;4.22;81.06;101566.78;4978500;28;20045;-77
2022/01/22 12:15:19;;;;;;;36.22;14.18;;;;;;;4.19;80.80;101566.91;5010667;28;20042;-76
2022/01/22 12:17:58;;;;;;;42.90;13.70;;;;;;;4.17;80.94;101565.22;4991882;28;20112;-77
2022/01/22 12:23:11;;;;;;;36.05;14.10;;;;;;;4.19;81.08;101561.63;4989481;28;20038;-76
2022/01/22 12:25:38;;;;;;;41.45;16.75;;;;;;;4.27;81.04;101567.47;5003717;28;20513;-77
2022/01/22 12:28:06;;;;;;;41.00;14.60;;;;;;;4.24;81.43;101569.38;5015863;28;20069;-77
2022/01/22 12:30:44;;;;;;;30.27;11.77;;;;;;;4.23;81.58;101557.16;4996773;28;20037;-77
2022/01/22 12:33:14;;;;;;;41.83;14.65;;;;;;;4.24;81.17;101564.97;4992331;28;20500;-77
2022/01/22 12:36:17;;;;;;;32.13;13.45;;;;;;;4.19;81.44;101572.16;5037521;28;20048;-77
2022/01/22 12:38:48;;;;;;;46.22;14.07;;;;;;;4.28;81.14;101560.47;5017540;28;20488;-77
2022/01/22 12:41:47;;;;;;;47.60;14.82;;;;;;;4.31;80.98;101566.47;5050672;28;20065;-75
2022/01/22 12:44:29;;;;;;;35.72;13.57;;;;;;;4.18;81.53;101575.72;5013856;28;20040;-77
2022/01/22 12:47:00;;;;;;;34.47;13.50;;;;;;;4.22;81.34;101573.81;5034088;28;20048;-78
2022/01/22 12:49:29;;;;;;;42.05;13.52;;;;;;;4.25;81.51;101568.44;5041299;28;20041;-78
2022/01/22 12:52:03;;;;;;;35.13;13.90;;;;;;;4.29;81.45;101572.69;5049682;28;20076;-77
2022/01/22 12:54:58;;;;;;;47.05;15.57;;;;;;;4.31;81.00;101566.47;5043049;28;20048;-77
2022/01/22 12:57:45;;;;;;;42.35;13.73;;;;;;;4.34;80.97;101566.38;4992466;28;20040;-77
2022/01/22 13:00:18;;;;;;;41.53;15.80;;;;;;;4.36;81.09;101566.31;5047523;28;20061;-77
2022/01/22 13:02:51;;;;;;;42.65;14.05;;;;;;;4.31;81.31;101563.84;5067884;28;20488;-78
2022/01/22 13:05:20;;;;;;;49.13;15.15;;;;;;;4.33;81.20;101563.81;5027938;28;20487;-77
2022/01/22 13:08:07;;;;;;;41.80;14.80;;;;;;;4.38;81.34;101563.66;4990419;28;20052;-78
2022/01/22 13:10:59;;;;;;;40.80;15.05;;;;;;;4.40;81.37;101559.16;5015591;28;20045;-78
2022/01/22 13:13:39;;;;;;;39.03;14.48;;;;;;;4.38;81.71;101556.63;5051777;28;20127;-78
2022/01/22 13:16:11;;;;;;;44.88;16.17;;;;;;;4.43;81.39;101562.56;5054423;28;20048;-78